Decoded Metar for KRHI (RHINELANDER in WI, USA) (IATA:RHI) | Meteo·Mobile Aviation Weather
aviador You're here:

KRHI Decoded Metar

RHINELANDER in WI, USA
Report Time2019-01-16 04:53:00
UTC Time2019-01-16 05:27:53
Flight Rules mvfr MVFR
Wind300° at 12 Gusting to 20 kt
W.Decomp.*RWY 33: 10.7 kt HW 5.4 kt LCW
RWY 27: 10.1 kt HW 6.5 kt RCW
W.Rank300° ranks 11
Current wind is above 300° avg. (7.3)
Visibility9999 m
Phenomena:N/A
Clouds:Broken 020 Hf
Overcast 025 Hf
Expected CloudBase > 1,600 ft AGL from Temp-Dew spread
Ceiling2,000 ft
Temp-4°C (ISA -16)
Dew Point-8°C (74% RH)
AAT-11.2°C
QNH1014 hPa
Density Alt-338 ft
Elevation1,591 ft
Report Wrong Elevation
Raw Report
KRHI 160453Z AUTO 30012G20KT 10SM BKN020 OVC025 M04/M08 A2993 RMK
AO2 SLP157 T10391083=

Extra information for KRHI:More info

Metar Taf Metar & Taf Last 4 Metars F.Rules Stats Wind Profile Meteogram Temp Stats Airport Information Weather charts Add Link Nearby VenuesMetar ALERT Operation Metar Decoded Social comments

AIRNAV info for KRHI